Aérodrome :
LOGIN :

S'inscrire | Disclaimer

   EN    FR    IT 

 










Légende :    VFR   VFR Marginal   IFR   IFR Intensif   IFR Très Intensif
Visi : 
Plafond : 
>= 8 km
>= 3000ft
5 à 8 km
1000 à 3000 ft
1500m à 5 km
500 à 1000 ft
800 à 1500m
200 à 500 ft
< 800m
< 200 ft
Symboles :   Orages  Brouillard  Fortes neiges  Fortes précipitations  Vent > 20 kt
SIGMETs :   Divers  Orages  Givrage  Turbulence  Onde Orograph.  Cendres Volcan.






- Altitude de l'aérodrome : 63 ft
- Code IATA : BZM


EHWO - Woensdrecht Airbase

DERNIER METAR :
  • 301025Z AUTO 28015KT 230V350 9999 FEW030 SCT035 08/03 Q1020 BLU TEMPO 30016G27KT

METARs EXPIRÉS :
  • 300958Z AUTO 28015KT 230V320 9999 NCD 08/03 Q1020 BLU TEMPO 30016G27KT
  • 300955Z AUTO 28015KT 240V320 9999 NCD 08/03 Q1020 BLU TEMPO FM0930 30016G27KT
  • 300925Z AUTO 28014KT 240V320 9999 NCD 07/03 Q1019 BLU TEMPO FM0930 30016G27KT
  • 300855Z AUTO 27013KT 240V320 9999 NCD 07/03 Q1019 BLU TEMPO FM0930 30016G27KT
  • 300843Z AUTO 27013KT 240V310 9999 NCD 07/03 Q1019 BLU TEMPO FM0930 30016G27KT
  • 300828Z AUTO 27011KT 240V310 9999 NCD 07/03 Q1019 BLU TEMPO FM0930 30016G27KT
  • 300825Z AUTO 27011KT 240V320 9999 NCD 06/03 Q1019 BLU NOSIG
  • 300801Z AUTO 27011KT 240V310 9999 NCD 06/03 Q1018 BLU NOSIG

TAF TAF EHWO
Valide du 30 à 10h jusqu'au 30 à 22h UTC


300916Z 3010/3022 28015G25KT 9999 FEW020
PROB40
TEMPO 3010/3016 30018G30KT
BECMG 3015/3017 30007KT



MET'MAP, la Météo Aéronautique d'un coup d'oeil ! - Copyright ORBIFLY Décembre 2007 - Disclaimer

ORBIFLY MET'MAP TEAM :

Programmation & Développement : Alexandra Zaïnal
Sur une idée originale de : Baudouin d'Aumeries
Soutien technique & logistique : Manuel Goepfert
Assistance : Marc-Olivier Méhu




SOURCES & CREDITS :

   NOAA